sensor_id;sensor_type;location;lat;lon;timestamp;pressure;altitude;pressure_sealevel;temperature;humidity
50550;BME280;36505;52.512;13.460;2023-05-18T00:00:34;102140.75;;;8.89;56.35
50550;BME280;36505;52.512;13.460;2023-05-18T00:02:59;102139.84;;;8.82;56.68
50550;BME280;36505;52.512;13.460;2023-05-18T00:05:26;102145.31;;;8.82;56.76
50550;BME280;36505;52.512;13.460;2023-05-18T00:07:51;102129.66;;;8.69;56.91
50550;BME280;36505;52.512;13.460;2023-05-18T00:10:18;102130.00;;;8.60;57.08
50550;BME280;36505;52.512;13.460;2023-05-18T00:12:43;102148.53;;;8.64;57.32
50550;BME280;36505;52.512;13.460;2023-05-18T00:15:08;102153.59;;;8.67;57.32
50550;BME280;36505;52.512;13.460;2023-05-18T00:17:34;102151.94;;;8.66;57.32
50550;BME280;36505;52.512;13.460;2023-05-18T00:20:00;102158.47;;;8.72;57.02
50550;BME280;36505;52.512;13.460;2023-05-18T00:22:25;102157.16;;;8.68;57.75
50550;BME280;36505;52.512;13.460;2023-05-18T00:24:51;102155.47;;;8.67;57.61
50550;BME280;36505;52.512;13.460;2023-05-18T00:27:17;102161.84;;;8.74;57.54
50550;BME280;36505;52.512;13.460;2023-05-18T00:29:42;102144.41;;;8.75;57.43
50550;BME280;36505;52.512;13.460;2023-05-18T00:32:08;102159.75;;;8.76;57.49
50550;BME280;36505;52.512;13.460;2023-05-18T00:34:33;102159.94;;;8.75;57.61
50550;BME280;36505;52.512;13.460;2023-05-18T00:36:58;102154.91;;;8.71;57.37
50550;BME280;36505;52.512;13.460;2023-05-18T00:39:24;102150.88;;;8.67;57.64
50550;BME280;36505;52.512;13.460;2023-05-18T00:41:49;102142.84;;;8.59;57.47
50550;BME280;36505;52.512;13.460;2023-05-18T00:44:14;102155.28;;;8.68;57.59
50550;BME280;36505;52.512;13.460;2023-05-18T00:46:40;102151.47;;;8.63;57.78
50550;BME280;36505;52.512;13.460;2023-05-18T00:49:08;102160.94;;;8.67;58.01
50550;BME280;36505;52.512;13.460;2023-05-18T00:51:34;102166.88;;;8.70;58.11
50550;BME280;36505;52.512;13.460;2023-05-18T00:54:00;102168.09;;;8.68;57.85
50550;BME280;36505;52.512;13.460;2023-05-18T00:56:28;102169.28;;;8.59;58.89
50550;BME280;36505;52.512;13.460;2023-05-18T00:58:55;102171.75;;;8.54;58.80
50550;BME280;36505;52.512;13.460;2023-05-18T01:01:29;102181.00;;;8.53;58.75
50550;BME280;36505;52.512;13.460;2023-05-18T01:03:56;102177.22;;;8.54;58.71
50550;BME280;36505;52.512;13.460;2023-05-18T01:06:22;102173.84;;;8.52;59.10
50550;BME280;36505;52.512;13.460;2023-05-18T01:08:54;102183.97;;;8.58;59.01
50550;BME280;36505;52.512;13.460;2023-05-18T01:14:10;102176.59;;;8.52;59.07
50550;BME280;36505;52.512;13.460;2023-05-18T01:16:43;102159.50;;;8.43;59.11
50550;BME280;36505;52.512;13.460;2023-05-18T01:19:48;102183.97;;;8.58;59.17
50550;BME280;36505;52.512;13.460;2023-05-18T01:22:31;102193.22;;;8.57;59.27
50550;BME280;36505;52.512;13.460;2023-05-18T01:25:03;102188.78;;;8.56;59.33
50550;BME280;36505;52.512;13.460;2023-05-18T01:27:31;102184.78;;;8.52;59.24
50550;BME280;36505;52.512;13.460;2023-05-18T01:30:01;102197.44;;;8.59;59.51
50550;BME280;36505;52.512;13.460;2023-05-18T01:32:27;102184.38;;;8.55;59.35
50550;BME280;36505;52.512;13.460;2023-05-18T01:34:52;102192.56;;;8.55;59.45
50550;BME280;36505;52.512;13.460;2023-05-18T01:37:18;102196.78;;;8.57;59.64
50550;BME280;36505;52.512;13.460;2023-05-18T01:39:43;102190.66;;;8.55;60.05
50550;BME280;36505;52.512;13.460;2023-05-18T01:42:13;102201.22;;;8.58;59.99
50550;BME280;36505;52.512;13.460;2023-05-18T01:44:50;102190.84;;;8.54;59.69
50550;BME280;36505;52.512;13.460;2023-05-18T01:47:17;102170.22;;;8.45;59.75
50550;BME280;36505;52.512;13.460;2023-05-18T01:49:58;102193.03;;;8.58;59.74
50550;BME280;36505;52.512;13.460;2023-05-18T01:52:31;102206.53;;;8.66;59.60
50550;BME280;36505;52.512;13.460;2023-05-18T01:55:01;102197.22;;;8.61;59.85
50550;BME280;36505;52.512;13.460;2023-05-18T01:57:29;102203.59;;;8.68;59.67
50550;BME280;36505;52.512;13.460;2023-05-18T01:59:57;102195.41;;;8.68;59.39
50550;BME280;36505;52.512;13.460;2023-05-18T02:02:24;102193.09;;;8.65;59.91
50550;BME280;36505;52.512;13.460;2023-05-18T02:04:50;102207.41;;;8.73;59.86
50550;BME280;36505;52.512;13.460;2023-05-18T02:07:16;102203.88;;;8.73;59.94
50550;BME280;36505;52.512;13.460;2023-05-18T02:09:41;102198.53;;;8.65;59.95
50550;BME280;36505;52.512;13.460;2023-05-18T02:12:08;102176.38;;;8.53;60.28
50550;BME280;36505;52.512;13.460;2023-05-18T02:14:34;102185.41;;;8.54;60.20
50550;BME280;36505;52.512;13.460;2023-05-18T02:16:59;102195.69;;;8.52;60.73
50550;BME280;36505;52.512;13.460;2023-05-18T02:19:25;102192.13;;;8.51;60.60
50550;BME280;36505;52.512;13.460;2023-05-18T02:21:50;102199.47;;;8.51;60.94
50550;BME280;36505;52.512;13.460;2023-05-18T02:24:16;102193.69;;;8.39;61.22
50550;BME280;36505;52.512;13.460;2023-05-18T02:26:44;102201.47;;;8.42;61.19
50550;BME280;36505;52.512;13.460;2023-05-18T02:29:09;102206.06;;;8.42;61.18
50550;BME280;36505;52.512;13.460;2023-05-18T02:31:39;102185.41;;;8.32;61.41
50550;BME280;36505;52.512;13.460;2023-05-18T02:34:05;102201.59;;;8.34;61.32
50550;BME280;36505;52.512;13.460;2023-05-18T02:36:30;102202.00;;;8.31;61.76
50550;BME280;36505;52.512;13.460;2023-05-18T02:39:05;102197.28;;;8.25;61.70
50550;BME280;36505;52.512;13.460;2023-05-18T02:41:34;102199.78;;;8.26;61.93
50550;BME280;36505;52.512;13.460;2023-05-18T02:44:00;102190.25;;;8.16;62.05
50550;BME280;36505;52.512;13.460;2023-05-18T02:46:28;102214.22;;;8.20;62.20
50550;BME280;36505;52.512;13.460;2023-05-18T02:48:54;102201.53;;;8.13;62.43
50550;BME280;36505;52.512;13.460;2023-05-18T02:51:20;102210.19;;;8.16;62.39
50550;BME280;36505;52.512;13.460;2023-05-18T02:53:49;102216.03;;;8.13;62.87
50550;BME280;36505;52.512;13.460;2023-05-18T02:56:15;102208.78;;;8.06;62.81
50550;BME280;36505;52.512;13.460;2023-05-18T02:58:42;102219.34;;;8.09;62.67
50550;BME280;36505;52.512;13.460;2023-05-18T03:01:08;102200.75;;;7.98;62.95
50550;BME280;36505;52.512;13.460;2023-05-18T03:03:36;102218.22;;;8.03;62.90
50550;BME280;36505;52.512;13.460;2023-05-18T03:06:02;102217.97;;;7.98;63.03
50550;BME280;36505;52.512;13.460;2023-05-18T03:08:27;102222.00;;;8.02;62.97
50550;BME280;36505;52.512;13.460;2023-05-18T03:10:53;102219.94;;;8.04;63.28
50550;BME280;36505;52.512;13.460;2023-05-18T03:13:20;102218.03;;;8.05;63.39
50550;BME280;36505;52.512;13.460;2023-05-18T03:15:46;102222.00;;;8.02;63.71
50550;BME280;36505;52.512;13.460;2023-05-18T03:18:12;102223.44;;;7.98;63.87
50550;BME280;36505;52.512;13.460;2023-05-18T03:20:37;102225.00;;;7.92;63.86
50550;BME280;36505;52.512;13.460;2023-05-18T03:23:03;102212.72;;;7.82;64.38
50550;BME280;36505;52.512;13.460;2023-05-18T03:25:28;102222.88;;;7.88;64.53
50550;BME280;36505;52.512;13.460;2023-05-18T03:27:54;102219.09;;;7.89;64.57
50550;BME280;36505;52.512;13.460;2023-05-18T03:30:20;102216.81;;;7.92;64.30
50550;BME280;36505;52.512;13.460;2023-05-18T03:32:46;102221.44;;;7.92;64.61
50550;BME280;36505;52.512;13.460;2023-05-18T03:35:13;102201.41;;;7.85;64.38
50550;BME280;36505;52.512;13.460;2023-05-18T03:37:38;102212.22;;;7.93;64.52
50550;BME280;36505;52.512;13.460;2023-05-18T03:40:12;102226.78;;;8.00;64.44
50550;BME280;36505;52.512;13.460;2023-05-18T03:42:39;102224.47;;;7.97;64.68
50550;BME280;36505;52.512;13.460;2023-05-18T03:45:06;102222.94;;;7.94;65.01
50550;BME280;36505;52.512;13.460;2023-05-18T03:47:32;102237.88;;;7.99;64.61
50550;BME280;36505;52.512;13.460;2023-05-18T03:49:57;102221.44;;;7.92;64.70
50550;BME280;36505;52.512;13.460;2023-05-18T03:52:23;102228.66;;;8.00;64.70
50550;BME280;36505;52.512;13.460;2023-05-18T03:54:49;102219.84;;;7.98;64.49
50550;BME280;36505;52.512;13.460;2023-05-18T03:57:15;102237.84;;;8.13;63.91
50550;BME280;36505;52.512;13.460;2023-05-18T03:59:41;102231.00;;;8.17;64.36
50550;BME280;36505;52.512;13.460;2023-05-18T04:02:07;102241.56;;;8.27;64.46
50550;BME280;36505;52.512;13.460;2023-05-18T04:04:32;102240.84;;;8.33;63.91
50550;BME280;36505;52.512;13.460;2023-05-18T04:06:58;102243.63;;;8.40;63.52
50550;BME280;36505;52.512;13.460;2023-05-18T04:09:27;102242.41;;;8.42;63.48
50550;BME280;36505;52.512;13.460;2023-05-18T04:11:52;102218.25;;;8.39;63.40
50550;BME280;36505;52.512;13.460;2023-05-18T04:14:17;102255.59;;;8.60;64.66
50550;BME280;36505;52.512;13.460;2023-05-18T04:16:45;102258.81;;;8.63;63.53
50550;BME280;36505;52.512;13.460;2023-05-18T04:19:10;102260.50;;;8.64;63.05
50550;BME280;36505;52.512;13.460;2023-05-18T04:21:37;102263.66;;;8.68;62.75
50550;BME280;36505;52.512;13.460;2023-05-18T04:24:03;102261.59;;;8.70;62.80
50550;BME280;36505;52.512;13.460;2023-05-18T04:26:34;102256.97;;;8.70;62.37
50550;BME280;36505;52.512;13.460;2023-05-18T04:29:03;102269.72;;;8.85;62.43
50550;BME280;36505;52.512;13.460;2023-05-18T04:31:28;102257.63;;;8.94;61.79
50550;BME280;36505;52.512;13.460;2023-05-18T04:33:55;102261.69;;;9.04;61.59
50550;BME280;36505;52.512;13.460;2023-05-18T04:36:21;102262.78;;;9.10;61.31
50550;BME280;36505;52.512;13.460;2023-05-18T04:38:50;102257.56;;;9.15;61.02
50550;BME280;36505;52.512;13.460;2023-05-18T04:41:17;102263.41;;;9.33;60.75
50550;BME280;36505;52.512;13.460;2023-05-18T04:43:45;102259.91;;;9.46;60.52
50550;BME280;36505;52.512;13.460;2023-05-18T04:46:11;102267.22;;;9.73;59.64
50550;BME280;36505;52.512;13.460;2023-05-18T04:48:38;102262.72;;;10.41;58.15
50550;BME280;36505;52.512;13.460;2023-05-18T04:51:03;102270.97;;;11.46;55.22
50550;BME280;36505;52.512;13.460;2023-05-18T04:53:29;102271.78;;;12.38;52.44
50550;BME280;36505;52.512;13.460;2023-05-18T04:55:57;102276.38;;;12.44;51.89
50550;BME280;36505;52.512;13.460;2023-05-18T04:58:25;102270.94;;;12.37;52.06
50550;BME280;36505;52.512;13.460;2023-05-18T05:00:52;102271.44;;;12.59;51.69
50550;BME280;36505;52.512;13.460;2023-05-18T05:03:17;102268.59;;;12.72;51.01
50550;BME280;36505;52.512;13.460;2023-05-18T05:05:42;102278.47;;;13.11;50.09
50550;BME280;36505;52.512;13.460;2023-05-18T05:08:08;102263.91;;;13.04;49.55
50550;BME280;36505;52.512;13.460;2023-05-18T05:10:33;102272.59;;;13.57;49.20
50550;BME280;36505;52.512;13.460;2023-05-18T05:12:58;102260.81;;;14.83;46.02
50550;BME280;36505;52.512;13.460;2023-05-18T05:15:24;102267.00;;;16.70;41.54
50550;BME280;36505;52.512;13.460;2023-05-18T05:17:49;102262.88;;;18.11;38.61
50550;BME280;36505;52.512;13.460;2023-05-18T05:20:15;102252.94;;;19.17;36.34
50550;BME280;36505;52.512;13.460;2023-05-18T05:22:41;102245.84;;;20.36;34.17
50550;BME280;36505;52.512;13.460;2023-05-18T05:25:06;102230.63;;;21.09;32.92
50550;BME280;36505;52.512;13.460;2023-05-18T05:27:32;102255.22;;;22.22;30.91
50550;BME280;36505;52.512;13.460;2023-05-18T05:29:57;102261.28;;;22.89;29.91
50550;BME280;36505;52.512;13.460;2023-05-18T05:32:23;102263.78;;;22.90;29.32
50550;BME280;36505;52.512;13.460;2023-05-18T05:34:48;102262.03;;;23.62;28.53
50550;BME280;36505;52.512;13.460;2023-05-18T05:37:16;102272.66;;;24.13;27.37
50550;BME280;36505;52.512;13.460;2023-05-18T05:39:41;102268.56;;;24.05;27.91
50550;BME280;36505;52.512;13.460;2023-05-18T05:42:07;102274.81;;;24.63;26.73
50550;BME280;36505;52.512;13.460;2023-05-18T05:44:33;102277.28;;;24.27;27.72
50550;BME280;36505;52.512;13.460;2023-05-18T05:46:58;102270.59;;;25.03;26.17
50550;BME280;36505;52.512;13.460;2023-05-18T05:49:24;102282.25;;;25.43;25.72
50550;BME280;36505;52.512;13.460;2023-05-18T05:51:49;102286.81;;;25.85;25.26
50550;BME280;36505;52.512;13.460;2023-05-18T05:54:14;102285.72;;;26.27;24.30
50550;BME280;36505;52.512;13.460;2023-05-18T05:56:40;102288.84;;;26.25;24.76
50550;BME280;36505;52.512;13.460;2023-05-18T05:59:05;102285.47;;;26.51;24.27
50550;BME280;36505;52.512;13.460;2023-05-18T06:01:30;102268.41;;;26.83;24.08
50550;BME280;36505;52.512;13.460;2023-05-18T06:03:56;102278.47;;;27.65;23.18
50550;BME280;36505;52.512;13.460;2023-05-18T06:06:22;102277.41;;;27.83;22.86
50550;BME280;36505;52.512;13.460;2023-05-18T06:08:47;102284.59;;;28.37;22.04
50550;BME280;36505;52.512;13.460;2023-05-18T06:11:13;102283.72;;;28.28;22.18
50550;BME280;36505;52.512;13.460;2023-05-18T06:13:38;102279.81;;;28.63;21.59
50550;BME280;36505;52.512;13.460;2023-05-18T06:16:04;102285.41;;;28.38;21.96
50550;BME280;36505;52.512;13.460;2023-05-18T06:18:29;102279.38;;;28.79;21.54
50550;BME280;36505;52.512;13.460;2023-05-18T06:20:56;102267.03;;;28.49;21.72
50550;BME280;36505;52.512;13.460;2023-05-18T06:23:21;102282.19;;;29.04;21.25
50550;BME280;36505;52.512;13.460;2023-05-18T06:25:48;102274.38;;;29.01;21.51
50550;BME280;36505;52.512;13.460;2023-05-18T06:28:14;102288.97;;;29.38;20.95
50550;BME280;36505;52.512;13.460;2023-05-18T06:30:40;102262.75;;;29.37;20.82
50550;BME280;36505;52.512;13.460;2023-05-18T06:33:06;102286.16;;;30.02;20.58
50550;BME280;36505;52.512;13.460;2023-05-18T06:35:32;102287.25;;;30.09;20.06
50550;BME280;36505;52.512;13.460;2023-05-18T06:37:57;102283.63;;;29.28;20.66
50550;BME280;36505;52.512;13.460;2023-05-18T06:40:23;102295.59;;;28.82;20.67
50550;BME280;36505;52.512;13.460;2023-05-18T06:42:48;102285.94;;;28.74;21.03
50550;BME280;36505;52.512;13.460;2023-05-18T06:45:14;102284.56;;;28.28;21.32
50550;BME280;36505;52.512;13.460;2023-05-18T06:47:40;102274.03;;;28.94;21.30
50550;BME280;36505;52.512;13.460;2023-05-18T06:50:06;102289.81;;;28.95;20.94
50550;BME280;36505;52.512;13.460;2023-05-18T06:52:32;102294.13;;;29.10;20.39
50550;BME280;36505;52.512;13.460;2023-05-18T06:54:57;102294.22;;;29.65;20.26
50550;BME280;36505;52.512;13.460;2023-05-18T06:57:25;102298.38;;;29.59;19.97
50550;BME280;36505;52.512;13.460;2023-05-18T06:59:50;102302.38;;;29.58;19.78
50550;BME280;36505;52.512;13.460;2023-05-18T07:02:20;102291.38;;;29.74;20.00
50550;BME280;36505;52.512;13.460;2023-05-18T07:04:47;102297.81;;;30.30;19.78
50550;BME280;36505;52.512;13.460;2023-05-18T07:07:13;102297.88;;;31.13;18.80
50550;BME280;36505;52.512;13.460;2023-05-18T07:09:39;102290.81;;;31.85;18.63
50550;BME280;36505;52.512;13.460;2023-05-18T07:12:07;102285.31;;;32.00;18.48
50550;BME280;36505;52.512;13.460;2023-05-18T07:14:32;102283.53;;;32.44;17.45
50550;BME280;36505;52.512;13.460;2023-05-18T07:16:58;102279.50;;;31.72;17.71
50550;BME280;36505;52.512;13.460;2023-05-18T07:19:23;102289.59;;;30.66;18.49
50550;BME280;36505;52.512;13.460;2023-05-18T07:21:48;102293.84;;;30.51;18.62
50550;BME280;36505;52.512;13.460;2023-05-18T07:24:14;102294.50;;;30.78;18.91
50550;BME280;36505;52.512;13.460;2023-05-18T07:26:39;102287.53;;;30.46;18.97
50550;BME280;36505;52.512;13.460;2023-05-18T07:29:05;102284.69;;;29.78;19.57
50550;BME280;36505;52.512;13.460;2023-05-18T07:31:30;102276.22;;;29.78;20.17
50550;BME280;36505;52.512;13.460;2023-05-18T07:33:56;102278.19;;;30.24;19.42
50550;BME280;36505;52.512;13.460;2023-05-18T07:36:21;102284.50;;;31.01;19.33
50550;BME280;36505;52.512;13.460;2023-05-18T07:38:48;102275.97;;;32.00;18.06
50550;BME280;36505;52.512;13.460;2023-05-18T07:41:19;102283.66;;;32.48;17.18
50550;BME280;36505;52.512;13.460;2023-05-18T07:43:44;102282.78;;;32.72;16.82
50550;BME280;36505;52.512;13.460;2023-05-18T07:46:10;102278.94;;;32.40;16.91
50550;BME280;36505;52.512;13.460;2023-05-18T07:48:35;102280.34;;;31.52;18.09
50550;BME280;36505;52.512;13.460;2023-05-18T07:51:00;102284.63;;;30.34;18.32
50550;BME280;36505;52.512;13.460;2023-05-18T07:53:27;102290.13;;;28.77;19.44
50550;BME280;36505;52.512;13.460;2023-05-18T07:55:52;102283.00;;;27.30;21.06
50550;BME280;36505;52.512;13.460;2023-05-18T07:58:18;102285.06;;;27.38;21.74
50550;BME280;36505;52.512;13.460;2023-05-18T08:00:43;102281.59;;;28.42;20.88
50550;BME280;36505;52.512;13.460;2023-05-18T08:03:08;102280.78;;;28.50;20.13
50550;BME280;36505;52.512;13.460;2023-05-18T08:05:34;102288.41;;;27.71;20.59
50550;BME280;36505;52.512;13.460;2023-05-18T08:08:00;102297.56;;;26.38;21.79
50550;BME280;36505;52.512;13.460;2023-05-18T08:10:26;102300.94;;;25.15;22.48
50550;BME280;36505;52.512;13.460;2023-05-18T08:12:52;102304.00;;;24.38;22.81
50550;BME280;36505;52.512;13.460;2023-05-18T08:15:17;102306.03;;;23.17;24.31
50550;BME280;36505;52.512;13.460;2023-05-18T08:17:43;102310.91;;;22.48;25.71
50550;BME280;36505;52.512;13.460;2023-05-18T08:20:08;102315.59;;;21.57;26.68
50550;BME280;36505;52.512;13.460;2023-05-18T08:22:34;102303.84;;;20.74;27.25
50550;BME280;36505;52.512;13.460;2023-05-18T08:25:00;102302.50;;;21.07;27.47
50550;BME280;36505;52.512;13.460;2023-05-18T08:27:25;102300.63;;;23.31;25.73
50550;BME280;36505;52.512;13.460;2023-05-18T08:29:51;102297.41;;;23.77;23.69
50550;BME280;36505;52.512;13.460;2023-05-18T08:32:17;102303.44;;;22.92;24.79
50550;BME280;36505;52.512;13.460;2023-05-18T08:34:42;102311.06;;;22.17;26.00
50550;BME280;36505;52.512;13.460;2023-05-18T08:37:07;102304.75;;;21.25;27.22
50550;BME280;36505;52.512;13.460;2023-05-18T08:39:33;102315.28;;;20.21;29.07
50550;BME280;36505;52.512;13.460;2023-05-18T08:42:06;102308.13;;;19.46;30.52
50550;BME280;36505;52.512;13.460;2023-05-18T08:47:13;102301.34;;;20.10;30.81
50550;BME280;36505;52.512;13.460;2023-05-18T08:49:41;102296.03;;;20.76;29.87
50550;BME280;36505;52.512;13.460;2023-05-18T08:52:07;102285.94;;;20.50;30.89
50550;BME280;36505;52.512;13.460;2023-05-18T08:54:35;102297.06;;;20.40;30.33
50550;BME280;36505;52.512;13.460;2023-05-18T08:57:03;102294.94;;;20.10;31.33
50550;BME280;36505;52.512;13.460;2023-05-18T08:59:32;102295.66;;;19.85;31.13
50550;BME280;36505;52.512;13.460;2023-05-18T09:01:58;102296.47;;;19.44;31.48
50550;BME280;36505;52.512;13.460;2023-05-18T09:04:24;102304.53;;;19.13;32.29
50550;BME280;36505;52.512;13.460;2023-05-18T09:06:52;102309.16;;;18.76;32.47
50550;BME280;36505;52.512;13.460;2023-05-18T09:09:19;102304.50;;;18.38;32.93
50550;BME280;36505;52.512;13.460;2023-05-18T09:11:46;102309.88;;;18.01;33.56
50550;BME280;36505;52.512;13.460;2023-05-18T09:14:12;102309.31;;;17.82;33.95
50550;BME280;36505;52.512;13.460;2023-05-18T09:16:38;102314.53;;;17.45;34.75
50550;BME280;36505;52.512;13.460;2023-05-18T09:19:03;102314.88;;;17.32;35.08
50550;BME280;36505;52.512;13.460;2023-05-18T09:21:30;102303.13;;;17.25;35.17
50550;BME280;36505;52.512;13.460;2023-05-18T09:23:56;102309.75;;;17.24;35.44
50550;BME280;36505;52.512;13.460;2023-05-18T09:26:21;102301.78;;;17.27;35.24
50550;BME280;36505;52.512;13.460;2023-05-18T09:28:51;102291.38;;;17.51;34.58
50550;BME280;36505;52.512;13.460;2023-05-18T09:31:18;102304.31;;;18.01;34.22
50550;BME280;36505;52.512;13.460;2023-05-18T09:33:46;102291.56;;;18.22;33.35
50550;BME280;36505;52.512;13.460;2023-05-18T09:36:12;102290.25;;;18.51;33.28
50550;BME280;36505;52.512;13.460;2023-05-18T09:38:41;102294.94;;;18.50;33.38
50550;BME280;36505;52.512;13.460;2023-05-18T09:41:13;102294.66;;;18.25;33.10
50550;BME280;36505;52.512;13.460;2023-05-18T09:43:39;102286.97;;;18.32;33.24
50550;BME280;36505;52.512;13.460;2023-05-18T09:46:09;102284.50;;;18.36;33.31
50550;BME280;36505;52.512;13.460;2023-05-18T09:48:36;102276.06;;;18.47;32.68
50550;BME280;36505;52.512;13.460;2023-05-18T09:51:03;102286.13;;;18.53;32.83
50550;BME280;36505;52.512;13.460;2023-05-18T09:53:31;102284.41;;;18.69;32.72
50550;BME280;36505;52.512;13.460;2023-05-18T09:56:02;102283.44;;;18.85;31.96
50550;BME280;36505;52.512;13.460;2023-05-18T09:58:32;102287.06;;;19.18;32.19
50550;BME280;36505;52.512;13.460;2023-05-18T10:01:00;102288.13;;;19.44;31.69
50550;BME280;36505;52.512;13.460;2023-05-18T10:03:30;102283.88;;;19.73;30.49
50550;BME280;36505;52.512;13.460;2023-05-18T10:06:09;102285.47;;;19.59;30.71
50550;BME280;36505;52.512;13.460;2023-05-18T10:08:37;102278.25;;;19.26;30.27
50550;BME280;36505;52.512;13.460;2023-05-18T10:11:03;102275.44;;;18.89;30.10
50550;BME280;36505;52.512;13.460;2023-05-18T10:13:30;102276.59;;;18.44;31.83
50550;BME280;36505;52.512;13.460;2023-05-18T10:15:58;102273.25;;;18.21;31.93
50550;BME280;36505;52.512;13.460;2023-05-18T10:18:26;102276.28;;;17.97;32.84
50550;BME280;36505;52.512;13.460;2023-05-18T10:20:54;102276.09;;;17.65;33.08
50550;BME280;36505;52.512;13.460;2023-05-18T10:23:21;102265.66;;;17.56;33.51
50550;BME280;36505;52.512;13.460;2023-05-18T10:25:48;102274.09;;;17.44;33.83
50550;BME280;36505;52.512;13.460;2023-05-18T10:28:18;102268.44;;;17.56;33.40
50550;BME280;36505;52.512;13.460;2023-05-18T10:30:51;102258.13;;;17.51;33.40
50550;BME280;36505;52.512;13.460;2023-05-18T10:33:18;102264.13;;;17.82;33.43
50550;BME280;36505;52.512;13.460;2023-05-18T10:35:44;102242.47;;;18.22;32.97
50550;BME280;36505;52.512;13.460;2023-05-18T10:38:17;102242.09;;;18.35;32.36
50550;BME280;36505;52.512;13.460;2023-05-18T10:40:43;102245.84;;;18.02;32.53
50550;BME280;36505;52.512;13.460;2023-05-18T10:43:10;102258.03;;;17.80;33.01
50550;BME280;36505;52.512;13.460;2023-05-18T10:45:37;102261.16;;;17.50;33.30
50550;BME280;36505;52.512;13.460;2023-05-18T10:48:04;102256.31;;;17.23;33.19
50550;BME280;36505;52.512;13.460;2023-05-18T10:50:34;102253.47;;;17.18;33.20
50550;BME280;36505;52.512;13.460;2023-05-18T10:53:04;102252.28;;;17.14;33.47
50550;BME280;36505;52.512;13.460;2023-05-18T10:55:30;102244.75;;;17.10;33.37
50550;BME280;36505;52.512;13.460;2023-05-18T10:58:02;102239.69;;;17.23;33.85
50550;BME280;36505;52.512;13.460;2023-05-18T11:00:33;102238.69;;;17.46;32.58
50550;BME280;36505;52.512;13.460;2023-05-18T11:03:00;102230.09;;;17.64;32.31
50550;BME280;36505;52.512;13.460;2023-05-18T11:05:26;102240.41;;;17.69;32.84
50550;BME280;36505;52.512;13.460;2023-05-18T11:08:02;102244.28;;;17.68;33.12
50550;BME280;36505;52.512;13.460;2023-05-18T11:13:08;102247.13;;;17.73;33.12
50550;BME280;36505;52.512;13.460;2023-05-18T11:18:20;102248.75;;;17.91;32.70
50550;BME280;36505;52.512;13.460;2023-05-18T11:20:50;102254.34;;;17.74;32.47
50550;BME280;36505;52.512;13.460;2023-05-18T11:23:16;102246.16;;;17.29;32.63
50550;BME280;36505;52.512;13.460;2023-05-18T11:25:47;102244.72;;;17.43;32.96
50550;BME280;36505;52.512;13.460;2023-05-18T11:28:13;102240.84;;;17.61;33.65
50550;BME280;36505;52.512;13.460;2023-05-18T11:33:12;102237.50;;;17.42;33.52
50550;BME280;36505;52.512;13.460;2023-05-18T11:36:09;102236.03;;;17.18;34.17
50550;BME280;36505;52.512;13.460;2023-05-18T11:44:05;102234.09;;;16.56;34.08
50550;BME280;36505;52.512;13.460;2023-05-18T11:49:20;102235.66;;;16.64;35.01
50550;BME280;36505;52.512;13.460;2023-05-18T11:51:56;102227.94;;;16.66;33.91
50550;BME280;36505;52.512;13.460;2023-05-18T11:54:25;102219.06;;;16.64;34.71
50550;BME280;36505;52.512;13.460;2023-05-18T11:56:52;102219.22;;;16.74;34.31
50550;BME280;36505;52.512;13.460;2023-05-18T11:59:47;102218.75;;;16.77;34.49
50550;BME280;36505;52.512;13.460;2023-05-18T12:02:19;102215.84;;;16.72;35.07
50550;BME280;36505;52.512;13.460;2023-05-18T12:04:49;102229.19;;;16.47;34.74
50550;BME280;36505;52.512;13.460;2023-05-18T12:07:17;102221.28;;;16.10;35.56
50550;BME280;36505;52.512;13.460;2023-05-18T12:09:43;102221.28;;;15.82;36.06
50550;BME280;36505;52.512;13.460;2023-05-18T12:12:10;102227.78;;;15.76;35.46
50550;BME280;36505;52.512;13.460;2023-05-18T12:14:38;102232.44;;;15.52;35.84
50550;BME280;36505;52.512;13.460;2023-05-18T12:17:05;102210.13;;;15.42;36.00
50550;BME280;36505;52.512;13.460;2023-05-18T12:19:46;102226.44;;;15.43;36.57
50550;BME280;36505;52.512;13.460;2023-05-18T12:22:11;102217.69;;;15.47;35.85
50550;BME280;36505;52.512;13.460;2023-05-18T12:24:41;102206.66;;;15.47;36.10
50550;BME280;36505;52.512;13.460;2023-05-18T12:27:10;102208.66;;;15.51;36.01
50550;BME280;36505;52.512;13.460;2023-05-18T12:29:37;102213.53;;;15.56;35.88
50550;BME280;36505;52.512;13.460;2023-05-18T12:32:11;102204.56;;;15.77;35.71
50550;BME280;36505;52.512;13.460;2023-05-18T12:34:38;102211.50;;;16.03;35.87
50550;BME280;36505;52.512;13.460;2023-05-18T12:37:04;102194.31;;;16.01;35.64
50550;BME280;36505;52.512;13.460;2023-05-18T12:39:30;102203.13;;;15.86;36.51
50550;BME280;36505;52.512;13.460;2023-05-18T12:42:12;102206.81;;;15.92;36.49
50550;BME280;36505;52.512;13.460;2023-05-18T12:44:40;102209.69;;;15.97;36.43
50550;BME280;36505;52.512;13.460;2023-05-18T12:47:09;102208.31;;;15.83;36.54
50550;BME280;36505;52.512;13.460;2023-05-18T12:49:39;102200.91;;;15.60;35.50
50550;BME280;36505;52.512;13.460;2023-05-18T12:52:13;102206.03;;;15.45;36.42
50550;BME280;36505;52.512;13.460;2023-05-18T12:54:54;102199.91;;;15.42;36.58
50550;BME280;36505;52.512;13.460;2023-05-18T12:57:24;102208.00;;;15.56;36.17
50550;BME280;36505;52.512;13.460;2023-05-18T12:59:53;102193.56;;;15.65;36.08
50550;BME280;36505;52.512;13.460;2023-05-18T13:02:29;102191.25;;;15.74;35.93
50550;BME280;36505;52.512;13.460;2023-05-18T13:07:29;102184.41;;;15.76;36.29